Time;durP1;ratioP1;P1;durP2;ratioP2;P2;SDS_P1;SDS_P2;PMS_P1;PMS_P2;Temp;Humidity;BMP_temperature;BMP_pressure;BME280_temperature;BME280_humidity;BME280_pressure;Samples;Min_cycle;Max_cycle;Signal;HPM_P1;HPM_P2
2023/06/28 00:02:02;;;;;;;3.93;3.10;;;16.80;1.00;;;;;;5139166;27;20518;-63
2023/06/28 00:04:29;;;;;;;6.33;3.30;;;16.80;1.00;;;;;;5139711;27;20459;-63
2023/06/28 00:06:58;;;;;;;4.93;2.90;;;16.80;1.00;;;;;;5139776;27;20433;-63
2023/06/28 00:09:27;;;;;;;6.90;2.90;;;16.70;1.00;;;;;;5139194;27;20539;-63
2023/06/28 00:11:54;;;;;;;7.10;3.10;;;16.60;4.20;;;;;;5139477;27;20854;-63
2023/06/28 00:14:21;;;;;;;6.63;3.57;;;16.60;22.40;;;;;;5139595;27;20526;-63
2023/06/28 00:16:49;;;;;;;4.40;2.77;;;16.40;47.10;;;;;;5139608;27;20824;-63
2023/06/28 00:19:17;;;;;;;4.47;3.07;;;16.40;92.30;;;;;;5139755;27;20819;-63
2023/06/28 00:21:46;;;;;;;4.77;3.20;;;16.30;99.90;;;;;;5139259;27;20883;-63
2023/06/28 00:24:14;;;;;;;4.23;2.90;;;16.30;99.90;;;;;;5139292;27;20445;-63
2023/06/28 00:26:41;;;;;;;9.37;3.80;;;16.30;99.90;;;;;;5139437;27;20950;-63
2023/06/28 00:29:09;;;;;;;4.40;2.90;;;16.30;99.90;;;;;;5138606;27;20465;-63
2023/06/28 00:31:36;;;;;;;5.00;3.20;;;16.20;99.90;;;;;;5138879;27;20458;-63
2023/06/28 00:34:03;;;;;;;5.53;2.70;;;16.20;99.90;;;;;;5139137;27;20494;-63
2023/06/28 00:36:30;;;;;;;4.87;3.37;;;16.20;99.90;;;;;;5139196;27;20511;-63
2023/06/28 00:38:58;;;;;;;3.80;2.67;;;16.30;99.90;;;;;;5139472;27;20463;-64
2023/06/28 00:41:27;;;;;;;4.87;3.20;;;16.30;99.90;;;;;;5139105;27;20462;-63
2023/06/28 00:43:54;;;;;;;6.53;3.00;;;16.30;99.90;;;;;;5138773;27;20458;-64
2023/06/28 00:46:21;;;;;;;5.07;3.97;;;16.20;99.90;;;;;;5139161;27;20511;-63
2023/06/28 00:48:49;;;;;;;4.33;3.20;;;16.30;99.90;;;;;;5138775;27;20493;-64
2023/06/28 00:51:17;;;;;;;8.90;3.00;;;16.30;99.90;;;;;;5139068;27;20953;-63
2023/06/28 00:53:44;;;;;;;3.97;3.03;;;16.30;99.90;;;;;;5139052;27;20459;-63
2023/06/28 00:56:12;;;;;;;6.43;3.83;;;16.20;99.90;;;;;;5138974;27;20549;-64
2023/06/28 00:58:40;;;;;;;4.60;2.90;;;16.10;99.90;;;;;;5138763;27;20494;-64
2023/06/28 01:01:08;;;;;;;3.30;2.93;;;16.10;1.00;;;;;;5138204;27;20532;-63
2023/06/28 01:03:35;;;;;;;4.30;3.60;;;16.00;1.00;;;;;;5138546;27;20524;-63
2023/06/28 01:06:04;;;;;;;7.80;3.40;;;15.90;1.00;;;;;;5138728;27;20459;-63
2023/06/28 01:08:32;;;;;;;5.63;3.20;;;15.80;1.00;;;;;;5138858;27;20535;-64
2023/06/28 01:10:59;;;;;;;7.50;3.63;;;15.70;1.00;;;;;;5138506;27;20573;-63
2023/06/28 01:13:27;;;;;;;7.83;3.50;;;15.70;1.00;;;;;;5138859;27;20434;-63
2023/06/28 01:15:55;;;;;;;6.67;4.30;;;15.60;1.00;;;;;;5138192;27;20536;-63
2023/06/28 01:18:23;;;;;;;4.60;3.30;;;15.70;1.00;;;;;;5138348;27;20964;-63
2023/06/28 01:20:54;;;;;;;8.43;4.00;;;15.70;1.00;;;;;;5138716;27;20433;-64
2023/06/28 01:23:26;;;;;;;5.83;3.70;;;15.70;1.00;;;;;;5138202;27;20532;-63
2023/06/28 01:25:55;;;;;;;5.30;4.20;;;15.70;1.00;;;;;;5138316;27;20753;-63
2023/06/28 01:28:23;;;;;;;7.37;3.63;;;15.70;1.00;;;;;;5138630;27;20864;-63
2023/06/28 01:30:50;;;;;;;5.50;3.10;;;15.60;1.00;;;;;;5138307;27;20545;-63
2023/06/28 01:33:18;;;;;;;4.53;3.43;;;15.50;1.00;;;;;;5138217;27;20724;-64
2023/06/28 01:35:45;;;;;;;5.43;3.00;;;15.50;1.00;;;;;;5137963;27;20469;-64
2023/06/28 01:38:14;;;;;;;9.00;4.80;;;15.60;51.20;;;;;;5138034;27;20849;-63
2023/06/28 01:40:46;;;;;;;5.53;3.97;;;15.50;50.70;;;;;;5138225;28;20461;-64
2023/06/28 01:43:13;;;;;;;6.67;3.73;;;15.50;81.60;;;;;;5137896;28;20481;-64
2023/06/28 01:45:40;;;;;;;7.90;3.60;;;15.50;43.40;;;;;;5138036;28;20433;-64
2023/06/28 01:48:08;;;;;;;6.43;3.30;;;15.50;46.70;;;;;;5138217;28;20546;-64
2023/06/28 01:50:35;;;;;;;6.40;4.30;;;15.50;42.50;;;;;;5138070;28;21009;-64
2023/06/28 01:53:05;;;;;;;4.37;3.70;;;15.30;99.90;;;;;;5137848;28;20515;-64
2023/06/28 01:55:32;;;;;;;5.13;3.67;;;15.30;99.90;;;;;;5138364;28;20482;-64
2023/06/28 01:58:01;;;;;;;6.30;3.80;;;15.20;99.90;;;;;;5138081;28;20465;-64
2023/06/28 02:00:28;;;;;;;4.07;3.67;;;15.20;99.90;;;;;;5137868;28;20482;-64
2023/06/28 02:02:55;;;;;;;4.57;3.70;;;15.20;99.90;;;;;;5137815;28;20582;-64
2023/06/28 02:05:23;;;;;;;5.50;4.17;;;15.20;99.90;;;;;;5141147;27;20429;-64
2023/06/28 02:07:50;;;;;;;5.70;4.73;;;15.20;99.90;;;;;;5141940;27;20523;-64
2023/06/28 02:10:18;;;;;;;8.30;5.03;;;15.10;99.90;;;;;;5141743;27;20465;-64
2023/06/28 02:12:45;;;;;;;10.57;4.10;;;15.10;99.90;;;;;;5142149;27;20464;-64
2023/06/28 02:15:14;;;;;;;5.03;3.80;;;15.00;99.90;;;;;;5141775;27;20497;-64
2023/06/28 02:17:41;;;;;;;7.60;3.90;;;15.00;99.90;;;;;;5141898;27;20466;-64
2023/06/28 02:20:10;;;;;;;4.67;4.27;;;14.90;99.90;;;;;;5142268;27;20553;-64
2023/06/28 02:22:37;;;;;;;8.50;3.93;;;14.90;1.00;;;;;;5141686;27;20458;-64
2023/06/28 02:25:06;;;;;;;7.00;4.00;;;14.80;1.00;;;;;;5141748;27;20558;-64
2023/06/28 02:27:33;;;;;;;4.53;3.93;;;14.80;1.00;;;;;;5141812;27;20527;-64
2023/06/28 02:30:00;;;;;;;4.63;3.47;;;14.80;1.00;;;;;;5141712;27;20478;-64
2023/06/28 02:32:30;;;;;;;4.37;3.83;;;14.80;1.00;;;;;;5141513;27;20486;-64
2023/06/28 02:34:57;;;;;;;4.93;3.60;;;14.90;1.00;;;;;;5141580;27;20458;-64
2023/06/28 02:37:25;;;;;;;6.23;3.80;;;14.90;1.00;;;;;;5141527;27;20816;-64
2023/06/28 02:39:52;;;;;;;5.77;3.30;;;14.90;1.00;;;;;;5141498;27;20494;-64
2023/06/28 02:42:19;;;;;;;5.73;3.27;;;14.90;1.00;;;;;;5141254;27;20465;-64
2023/06/28 02:44:46;;;;;;;4.10;3.70;;;14.90;1.00;;;;;;5141379;27;20498;-64
2023/06/28 02:47:14;;;;;;;5.30;3.37;;;14.80;1.00;;;;;;5141470;27;20462;-64
2023/06/28 02:49:42;;;;;;;5.30;3.73;;;14.80;1.00;;;;;;5141441;27;20428;-64
2023/06/28 02:52:10;;;;;;;5.93;3.60;;;14.80;1.00;;;;;;5141284;27;20912;-65
2023/06/28 02:54:37;;;;;;;4.60;4.10;;;14.70;1.00;;;;;;5141021;27;20466;-65
2023/06/28 02:57:08;;;;;;;4.53;3.20;;;14.70;1.00;;;;;;5141050;27;20490;-64
2023/06/28 02:59:35;;;;;;;3.97;2.97;;;14.70;1.00;;;;;;5141159;27;20891;-65
2023/06/28 03:02:05;;;;;;;7.00;4.00;;;14.60;1.00;;;;;;5140555;27;20577;-64
2023/06/28 03:04:32;;;;;;;5.77;3.80;;;14.60;1.00;;;;;;5140889;27;20847;-64
2023/06/28 03:07:01;;;;;;;5.37;4.20;;;14.50;1.00;;;;;;5140729;27;20459;-65
2023/06/28 03:09:28;;;;;;;4.87;3.47;;;14.50;1.00;;;;;;5140527;27;20482;-64
2023/06/28 03:11:56;;;;;;;6.00;3.77;;;14.50;1.00;;;;;;5141083;27;20490;-65
2023/06/28 03:14:23;;;;;;;4.90;3.90;;;14.50;31.30;;;;;;5140664;27;20459;-65
2023/06/28 03:16:50;;;;;;;5.87;3.83;;;14.50;32.20;;;;;;5139759;27;20482;-64
2023/06/28 03:19:17;;;;;;;7.57;3.97;;;14.50;37.40;;;;;;5140596;27;20459;-65
2023/06/28 03:21:44;;;;;;;8.70;3.80;;;14.40;26.60;;;;;;5141023;27;20425;-65
2023/06/28 03:24:13;;;;;;;6.00;4.03;;;14.40;99.90;;;;;;5140109;27;20501;-65
2023/06/28 03:26:40;;;;;;;5.70;4.03;;;14.50;99.90;;;;;;5140437;27;20519;-65
2023/06/28 03:29:07;;;;;;;4.70;4.00;;;14.40;99.90;;;;;;5140318;27;20532;-65
2023/06/28 03:31:34;;;;;;;4.90;3.90;;;14.50;99.90;;;;;;5140649;27;20488;-66
2023/06/28 03:34:02;;;;;;;5.17;4.00;;;14.50;99.90;;;;;;5140517;27;20466;-65
2023/06/28 03:36:29;;;;;;;10.30;5.20;;;14.40;99.90;;;;;;5139999;27;20487;-65
2023/06/28 03:38:57;;;;;;;4.50;3.77;;;14.50;99.90;;;;;;5140055;27;20562;-65
2023/06/28 03:41:28;;;;;;;6.40;4.23;;;14.50;99.90;;;;;;5140462;27;20455;-65
2023/06/28 03:43:55;;;;;;;5.10;3.80;;;14.50;99.90;;;;;;5140268;27;20463;-65
2023/06/28 03:46:22;;;;;;;4.40;3.67;;;14.50;99.90;;;;;;5139714;27;20462;-65
2023/06/28 03:48:49;;;;;;;7.73;4.27;;;14.50;99.90;;;;;;5140152;27;20465;-65
2023/06/28 03:51:16;;;;;;;5.40;3.93;;;14.50;99.90;;;;;;5140193;27;20573;-65
2023/06/28 03:53:44;;;;;;;7.60;4.03;;;14.50;99.90;;;;;;5140362;27;20494;-65
2023/06/28 03:56:11;;;;;;;5.00;3.53;;;14.50;99.90;;;;;;5139646;27;20812;-66
2023/06/28 03:58:40;;;;;;;5.70;3.70;;;14.50;99.90;;;;;;5139705;27;20786;-65
2023/06/28 04:01:07;;;;;;;4.50;3.77;;;14.50;99.90;;;;;;5139518;27;20486;-65
2023/06/28 04:03:34;;;;;;;5.27;3.60;;;14.60;99.90;;;;;;5139782;27;20554;-65
2023/06/28 04:06:02;;;;;;;4.80;3.30;;;14.60;99.90;;;;;;5139945;27;20495;-65
2023/06/28 04:08:29;;;;;;;7.53;3.50;;;14.60;99.90;;;;;;5139642;27;20458;-65
2023/06/28 04:10:56;;;;;;;5.17;3.80;;;14.70;99.90;;;;;;5139513;27;20891;-65
2023/06/28 04:13:25;;;;;;;7.50;4.10;;;14.60;99.90;;;;;;5139845;27;20549;-65
2023/06/28 04:15:54;;;;;;;4.83;4.27;;;14.60;99.90;;;;;;5139441;27;20485;-65
2023/06/28 04:18:21;;;;;;;10.17;4.20;;;14.50;99.90;;;;;;5139394;27;20883;-65
2023/06/28 04:20:48;;;;;;;5.23;3.70;;;14.50;99.90;;;;;;5139851;27;20906;-65
2023/06/28 04:23:15;;;;;;;6.50;4.20;;;14.50;99.90;;;;;;5139438;27;20752;-65
2023/06/28 04:25:43;;;;;;;8.70;4.87;;;14.60;99.90;;;;;;5139856;27;20821;-65
2023/06/28 04:28:10;;;;;;;9.63;4.30;;;14.60;99.90;;;;;;5139103;27;20872;-65
2023/06/28 04:30:38;;;;;;;5.10;4.10;;;14.60;99.90;;;;;;5139619;27;20581;-65
2023/06/28 04:33:07;;;;;;;5.97;4.57;;;14.60;99.90;;;;;;5139323;27;20511;-66
2023/06/28 04:35:34;;;;;;;4.43;3.60;;;14.70;99.90;;;;;;5139271;27;20902;-65
2023/06/28 04:38:03;;;;;;;7.60;4.77;;;14.70;99.90;;;;;;5139562;27;20462;-66
2023/06/28 04:40:31;;;;;;;8.27;4.30;;;14.80;99.90;;;;;;5139068;27;20888;-65
2023/06/28 04:42:58;;;;;;;10.30;4.40;;;14.80;99.90;;;;;;5139078;27;20433;-65
2023/06/28 04:45:35;;;;;;;8.30;4.33;;;14.90;95.90;;;;;;5138650;27;20973;-65
2023/06/28 04:48:03;;;;;;;10.57;5.27;;;14.90;88.40;;;;;;5139119;27;20459;-65
2023/06/28 04:50:31;;;;;;;4.40;3.77;;;14.90;99.90;;;;;;5138526;27;20549;-65
2023/06/28 04:52:59;;;;;;;6.83;4.30;;;15.00;60.50;;;;;;5139222;27;20535;-65
2023/06/28 04:55:32;;;;;;;4.80;4.10;;;15.10;99.90;;;;;;5138851;27;20463;-65
2023/06/28 04:58:01;;;;;;;5.97;3.80;;;15.30;1.00;;;;;;5139161;27;20460;-65
2023/06/28 05:00:29;;;;;;;4.10;3.60;;;15.40;1.00;;;;;;5138070;27;20486;-65
2023/06/28 05:02:57;;;;;;;7.43;4.00;;;15.50;1.00;;;;;;5138629;27;20463;-65
2023/06/28 05:05:25;;;;;;;6.43;4.37;;;15.60;1.00;;;;;;5138609;27;20463;-65
2023/06/28 05:07:55;;;;;;;6.30;4.27;;;15.80;1.00;;;;;;5138639;27;20579;-65
2023/06/28 05:10:23;;;;;;;10.13;4.07;;;15.90;1.00;;;;;;5138703;27;20898;-64
2023/06/28 05:12:51;;;;;;;9.43;5.30;;;16.00;1.00;;;;;;5138748;27;20788;-65
2023/06/28 05:15:19;;;;;;;11.73;4.53;;;16.10;1.00;;;;;;5133596;27;20445;-65
2023/06/28 05:17:46;;;;;;;5.77;4.50;;;16.30;1.00;;;;;;5117904;28;20456;-65
2023/06/28 05:20:14;;;;;;;6.50;4.53;;;16.40;99.90;;;;;;5117656;28;20520;-65
2023/06/28 05:22:42;;;;;;;8.10;4.07;;;16.50;99.90;;;;;;5117938;28;20884;-65
2023/06/28 05:25:11;;;;;;;6.87;4.10;;;16.70;99.90;;;;;;5117629;28;20463;-65
2023/06/28 05:27:39;;;;;;;8.50;4.23;;;16.90;99.90;;;;;;5117865;28;20465;-65
2023/06/28 05:30:07;;;;;;;13.37;5.17;;;17.00;99.90;;;;;;5131712;27;20470;-65
2023/06/28 05:32:35;;;;;;;5.23;4.33;;;17.10;99.90;;;;;;5137477;27;20490;-65
2023/06/28 05:35:02;;;;;;;7.70;4.17;;;17.20;1.50;;;;;;5138203;27;20822;-65
2023/06/28 05:37:30;;;;;;;6.40;4.90;;;17.30;23.70;;;;;;5138176;27;20559;-65
2023/06/28 05:39:57;;;;;;;6.23;5.00;;;17.40;1.00;;;;;;5137579;27;20541;-63
2023/06/28 05:42:25;;;;;;;5.03;4.33;;;17.50;1.00;;;;;;5138792;28;20458;-63
2023/06/28 05:44:53;;;;;;;7.37;4.77;;;17.60;1.00;;;;;;5137510;28;20446;-63
2023/06/28 05:47:20;;;;;;;5.53;4.70;;;17.70;1.00;;;;;;5137326;28;20497;-64
2023/06/28 05:49:49;;;;;;;5.73;4.70;;;17.70;1.00;;;;;;5134884;28;20474;-63
2023/06/28 05:52:16;;;;;;;10.70;5.00;;;17.80;1.00;;;;;;5137460;28;20489;-63
2023/06/28 05:54:44;;;;;;;10.43;5.43;;;17.90;1.00;;;;;;5138254;28;20845;-63
2023/06/28 05:57:12;;;;;;;8.23;5.53;;;17.90;1.00;;;;;;5137435;28;20541;-63
2023/06/28 05:59:41;;;;;;;8.60;4.80;;;18.00;1.00;;;;;;5138633;28;20462;-63
2023/06/28 06:02:08;;;;;;;9.17;5.73;;;18.00;1.00;;;;;;5137753;28;20939;-63
2023/06/28 06:04:35;;;;;;;6.90;5.30;;;18.00;1.00;;;;;;5138354;28;20515;-64
2023/06/28 06:07:02;;;;;;;8.50;5.00;;;18.10;1.00;;;;;;5138479;28;20758;-64
2023/06/28 06:09:30;;;;;;;5.47;4.50;;;18.10;99.90;;;;;;5138343;28;20553;-64
2023/06/28 06:11:57;;;;;;;9.90;4.90;;;18.00;99.90;;;;;;5138253;28;20922;-64
2023/06/28 06:14:24;;;;;;;8.47;4.73;;;18.10;99.90;;;;;;5137855;28;20526;-64
2023/06/28 06:16:54;;;;;;;7.60;4.93;;;18.10;99.90;;;;;;5137323;28;20511;-64
2023/06/28 06:19:21;;;;;;;10.13;5.63;;;18.00;99.90;;;;;;5138046;28;20463;-63
2023/06/28 06:21:49;;;;;;;6.00;4.73;;;18.00;99.90;;;;;;5138513;28;20503;-64
2023/06/28 06:24:16;;;;;;;5.10;3.90;;;18.10;99.90;;;;;;5138211;28;20458;-64
2023/06/28 06:26:43;;;;;;;6.07;4.20;;;18.10;99.90;;;;;;5139273;28;20459;-64
2023/06/28 06:29:11;;;;;;;10.87;4.93;;;17.90;99.90;;;;;;5139289;28;20489;-64
2023/06/28 06:31:38;;;;;;;6.57;5.03;;;17.70;99.90;;;;;;5138900;28;20593;-64
2023/06/28 06:34:06;;;;;;;7.03;5.17;;;17.50;99.90;;;;;;5138452;28;20458;-64
2023/06/28 06:36:34;;;;;;;7.93;5.33;;;17.50;99.90;;;;;;5138295;28;20455;-63
2023/06/28 06:39:01;;;;;;;8.17;5.30;;;17.40;99.90;;;;;;5138977;28;20486;-63
2023/06/28 06:41:28;;;;;;;7.97;5.27;;;17.30;99.90;;;;;;5138498;28;20482;-63
2023/06/28 06:43:56;;;;;;;8.43;5.80;;;17.40;99.90;;;;;;5138400;28;20803;-63
2023/06/28 06:46:23;;;;;;;5.40;4.03;;;17.50;99.90;;;;;;5138497;28;20526;-63
2023/06/28 06:48:50;;;;;;;10.33;5.60;;;17.70;99.90;;;;;;5136908;28;20455;-63
2023/06/28 06:51:18;;;;;;;6.90;4.53;;;17.90;99.90;;;;;;5140953;27;20769;-63
2023/06/28 06:53:46;;;;;;;5.93;4.20;;;17.90;99.90;;;;;;5135814;27;20463;-63
2023/06/28 06:56:13;;;;;;;8.93;4.10;;;17.90;93.40;;;;;;5137537;27;20463;-63
2023/06/28 06:58:40;;;;;;;3.80;2.97;;;18.00;86.80;;;;;;5141064;27;20519;-63
2023/06/28 07:01:07;;;;;;;8.23;3.70;;;18.00;54.00;;;;;;5144546;27;20497;-63
2023/06/28 07:03:35;;;;;;;5.00;4.03;;;18.00;60.80;;;;;;5159540;27;20561;-63
2023/06/28 07:06:02;;;;;;;5.77;4.00;;;17.90;56.40;;;;;;5160561;27;20458;-63
2023/06/28 07:08:31;;;;;;;5.97;4.40;;;18.00;81.70;;;;;;5159792;27;20458;-63
2023/06/28 07:10:58;;;;;;;7.33;3.90;;;18.10;96.70;;;;;;5159549;27;20469;-63
2023/06/28 07:13:25;;;;;;;4.67;3.23;;;18.10;99.90;;;;;;5162097;27;20805;-63
2023/06/28 07:15:53;;;;;;;4.70;3.73;;;18.20;99.90;;;;;;5153851;27;20466;-63
2023/06/28 07:18:20;;;;;;;3.43;2.80;;;18.20;97.50;;;;;;5138311;27;20454;-63
2023/06/28 07:20:47;;;;;;;4.67;2.90;;;18.10;84.00;;;;;;5137578;27;20455;-64
2023/06/28 07:23:15;;;;;;;4.30;2.93;;;18.10;62.70;;;;;;5138541;27;20466;-63
2023/06/28 07:25:43;;;;;;;4.90;2.90;;;18.30;92.60;;;;;;5138183;27;20486;-63
2023/06/28 07:28:11;;;;;;;4.70;2.47;;;18.40;43.20;;;;;;5139338;27;20557;-63
2023/06/28 07:30:54;;;;;;;4.50;3.03;;;18.50;43.60;;;;;;5140528;27;20499;-63
2023/06/28 07:33:22;;;;;;;3.67;2.90;;;18.50;58.80;;;;;;5159210;27;20794;-64
2023/06/28 07:35:49;;;;;;;2.77;2.07;;;18.70;37.80;;;;;;5154344;27;20462;-64
2023/06/28 07:38:18;;;;;;;7.43;3.80;;;18.70;24.10;;;;;;5140778;27;20487;-64
2023/06/28 07:40:47;;;;;;;4.30;3.30;;;18.70;18.20;;;;;;5140939;27;20421;-64
2023/06/28 07:43:16;;;;;;;4.60;3.40;;;18.60;32.40;;;;;;5143863;27;20557;-65
2023/06/28 07:45:43;;;;;;;4.97;3.10;;;18.70;58.20;;;;;;5137975;27;20473;-64
2023/06/28 07:48:11;;;;;;;4.57;2.77;;;18.60;99.90;;;;;;5158015;27;20888;-65
2023/06/28 07:50:38;;;;;;;3.73;3.30;;;18.60;99.90;;;;;;5142903;27;20545;-64
2023/06/28 07:53:05;;;;;;;3.53;2.73;;;18.60;99.90;;;;;;5143113;27;20491;-64
2023/06/28 07:55:33;;;;;;;2.80;2.60;;;18.70;94.30;;;;;;5145973;27;20505;-64
2023/06/28 07:58:01;;;;;;;3.90;2.73;;;18.60;79.30;;;;;;5144715;27;20507;-64
2023/06/28 08:00:30;;;;;;;5.37;3.03;;;18.70;67.40;;;;;;5153077;27;20551;-65
2023/06/28 08:02:58;;;;;;;5.73;3.40;;;18.80;88.60;;;;;;5159805;27;20549;-64
2023/06/28 08:05:26;;;;;;;8.53;3.30;;;18.90;92.90;;;;;;5163577;27;20457;-65
2023/06/28 08:07:54;;;;;;;5.63;3.10;;;19.10;99.90;;;;;;5164476;27;20439;-64
2023/06/28 08:10:22;;;;;;;6.13;3.83;;;19.00;84.80;;;;;;5164762;27;20462;-64
2023/06/28 08:12:49;;;;;;;8.67;3.63;;;19.10;84.30;;;;;;5163997;27;20496;-63
2023/06/28 08:15:19;;;;;;;4.57;3.23;;;19.10;66.70;;;;;;5149514;27;20520;-63
2023/06/28 08:17:46;;;;;;;4.83;3.07;;;19.30;94.40;;;;;;5138340;27;20532;-62
2023/06/28 08:20:13;;;;;;;3.60;2.93;;;19.50;95.50;;;;;;5135264;27;20456;-62
2023/06/28 08:22:40;;;;;;;5.60;3.77;;;19.50;86.90;;;;;;5123130;27;20465;-62
2023/06/28 08:25:08;;;;;;;5.43;3.00;;;19.60;99.90;;;;;;5139292;27;20997;-62
2023/06/28 08:27:36;;;;;;;5.73;3.70;;;19.70;99.60;;;;;;5139782;27;20758;-62
2023/06/28 08:30:04;;;;;;;5.07;3.20;;;19.70;94.70;;;;;;5139713;27;20458;-62
2023/06/28 08:32:34;;;;;;;6.13;3.60;;;20.00;93.50;;;;;;5139571;27;20495;-62
2023/06/28 08:35:02;;;;;;;4.20;3.80;;;20.20;99.90;;;;;;5139095;27;20820;-62
2023/06/28 08:37:31;;;;;;;3.30;2.97;;;20.20;99.90;;;;;;5137702;27;20508;-62
2023/06/28 08:39:59;;;;;;;6.73;3.47;;;20.20;99.90;;;;;;5144100;27;20803;-64
2023/06/28 08:42:28;;;;;;;7.13;3.50;;;20.10;96.70;;;;;;5142829;27;20467;-63
2023/06/28 08:44:58;;;;;;;5.80;4.60;;;20.00;99.90;;;;;;5147707;27;20465;-64
2023/06/28 08:47:29;;;;;;;4.97;3.80;;;20.00;99.90;;;;;;5143701;27;20577;-63
2023/06/28 08:49:59;;;;;;;5.43;3.83;;;19.90;99.90;;;;;;5143057;27;20862;-64
2023/06/28 08:52:27;;;;;;;13.20;5.10;;;19.80;99.90;;;;;;5124750;27;20518;-63
2023/06/28 08:54:55;;;;;;;7.40;4.20;;;19.70;93.70;;;;;;5121506;28;20466;-63
2023/06/28 08:57:23;;;;;;;5.17;4.47;;;19.60;95.60;;;;;;5140841;27;20560;-64
2023/06/28 08:59:50;;;;;;;9.37;4.77;;;19.60;99.90;;;;;;5141377;27;20790;-64
2023/06/28 09:02:19;;;;;;;7.40;4.30;;;19.80;99.90;;;;;;5142509;27;20794;-64
2023/06/28 09:04:48;;;;;;;5.30;4.03;;;19.90;90.40;;;;;;5143343;27;20522;-64
2023/06/28 09:07:18;;;;;;;7.00;4.13;;;20.10;99.90;;;;;;5142260;27;20463;-64
2023/06/28 09:09:49;;;;;;;5.00;3.73;;;20.40;90.50;;;;;;5139748;27;20459;-65
2023/06/28 09:12:17;;;;;;;5.10;4.10;;;20.50;59.20;;;;;;5138018;27;20744;-65
2023/06/28 09:14:44;;;;;;;7.67;4.50;;;20.50;97.80;;;;;;5138241;27;20447;-65
2023/06/28 09:17:11;;;;;;;5.93;3.90;;;20.50;92.90;;;;;;5140769;27;20469;-64
2023/06/28 09:19:39;;;;;;;7.90;3.80;;;20.50;90.00;;;;;;5143145;27;20461;-64
2023/06/28 09:22:08;;;;;;;6.80;3.93;;;20.60;99.90;;;;;;5141499;27;20498;-64
2023/06/28 09:24:38;;;;;;;7.83;3.90;;;21.00;99.90;;;;;;5144074;27;20466;-63
2023/06/28 09:27:07;;;;;;;5.00;3.13;;;21.50;99.90;;;;;;5142916;27;20498;-64
2023/06/28 09:29:34;;;;;;;5.03;3.63;;;21.60;99.90;;;;;;5143258;27;20484;-64
2023/06/28 09:32:01;;;;;;;5.60;3.70;;;22.10;88.20;;;;;;5141292;27;20569;-60
2023/06/28 09:34:29;;;;;;;5.20;3.80;;;22.20;61.60;;;;;;5136979;27;20915;-59
2023/06/28 09:36:57;;;;;;;7.80;3.60;;;22.00;26.90;;;;;;5137862;27;20557;-60
2023/06/28 09:39:25;;;;;;;8.33;3.73;;;21.70;1.00;;;;;;5137866;27;20458;-59
2023/06/28 09:41:55;;;;;;;6.00;4.40;;;21.10;1.00;;;;;;5137813;27;20532;-59
2023/06/28 09:44:29;;;;;;;5.90;3.43;;;21.20;1.00;;;;;;5137124;28;20458;-59
2023/06/28 09:47:02;;;;;;;8.27;4.50;;;21.30;1.00;;;;;;5137502;28;20482;-59
2023/06/28 09:49:29;;;;;;;5.67;4.13;;;21.10;1.00;;;;;;5137662;28;20909;-59
2023/06/28 09:51:59;;;;;;;6.50;4.50;;;20.90;1.00;;;;;;5138163;28;20454;-59
2023/06/28 09:54:31;;;;;;;6.17;4.20;;;21.00;1.00;;;;;;5137802;28;20724;-60
2023/06/28 09:57:00;;;;;;;6.77;4.70;;;20.90;1.00;;;;;;5137917;28;20486;-61
2023/06/28 09:59:29;;;;;;;7.37;3.83;;;21.00;1.00;;;;;;5138005;28;20433;-59
2023/06/28 10:01:59;;;;;;;5.53;4.77;;;21.10;1.00;;;;;;5137914;27;20803;-60
2023/06/28 10:04:29;;;;;;;11.47;5.20;;;21.30;1.00;;;;;;5137203;27;20433;-59
2023/06/28 10:07:02;;;;;;;5.43;4.17;;;21.20;1.00;;;;;;5135554;27;20490;-59
2023/06/28 10:09:34;;;;;;;7.20;4.00;;;21.30;1.00;;;;;;5137250;28;20550;-59
2023/06/28 10:12:04;;;;;;;7.70;4.50;;;21.30;1.00;;;;;;5137635;28;20458;-59
2023/06/28 10:14:37;;;;;;;9.53;4.60;;;21.00;1.00;;;;;;5137732;28;20789;-59
2023/06/28 10:17:06;;;;;;;6.17;4.20;;;20.60;1.00;;;;;;5135283;28;20471;-59
2023/06/28 10:19:34;;;;;;;11.13;5.00;;;20.80;1.00;;;;;;5137507;28;20463;-58
2023/06/28 10:22:02;;;;;;;6.63;4.13;;;20.70;1.00;;;;;;5138081;28;20570;-59
2023/06/28 10:24:32;;;;;;;8.47;4.30;;;20.10;1.00;;;;;;5137572;27;20437;-59
2023/06/28 10:27:00;;;;;;;9.40;3.97;;;20.10;1.00;;;;;;5141521;27;20464;-59
2023/06/28 10:29:30;;;;;;;10.07;4.50;;;20.30;1.00;;;;;;5141874;27;20557;-59
2023/06/28 10:31:57;;;;;;;5.43;4.50;;;20.70;1.00;;;;;;5141346;27;20489;-59
2023/06/28 10:34:25;;;;;;;6.50;4.40;;;20.70;1.00;;;;;;5141316;27;20494;-59
2023/06/28 10:36:53;;;;;;;17.80;7.00;;;20.70;1.00;;;;;;5141855;27;20458;-58
2023/06/28 10:39:20;;;;;;;12.23;5.10;;;20.30;1.00;;;;;;5141887;27;20541;-59
2023/06/28 10:41:54;;;;;;;4.80;3.93;;;20.10;1.00;;;;;;5137516;27;20494;-61
2023/06/28 10:44:22;;;;;;;8.67;4.30;;;20.00;1.00;;;;;;5135746;27;20900;-58
2023/06/28 10:47:08;;;;;;;8.33;3.90;;;20.00;1.00;;;;;;5140508;27;20458;-59
2023/06/28 10:49:36;;;;;;;9.20;4.47;;;20.20;1.00;;;;;;5141291;27;20544;-59
2023/06/28 10:52:04;;;;;;;6.77;4.40;;;20.20;1.00;;;;;;5141346;27;20548;-59
2023/06/28 10:54:31;;;;;;;7.13;4.30;;;20.30;1.00;;;;;;5141223;27;20512;-58
2023/06/28 10:57:10;;;;;;;8.07;5.03;;;20.30;1.00;;;;;;5140443;27;20459;-59
2023/06/28 10:59:37;;;;;;;5.40;3.80;;;20.20;1.00;;;;;;5148933;27;20520;-60
2023/06/28 11:02:06;;;;;;;11.23;4.20;;;19.90;1.00;;;;;;5141872;27;20498;-60
2023/06/28 11:04:33;;;;;;;10.40;4.73;;;19.80;1.00;;;;;;5138923;27;20567;-60
2023/06/28 11:07:17;;;;;;;6.97;4.80;;;20.00;21.00;;;;;;5139598;27;20458;-60
2023/06/28 11:10:11;;;;;;;7.60;4.70;;;19.90;43.90;;;;;;5139328;27;20977;-59
2023/06/28 11:12:39;;;;;;;8.70;4.93;;;19.90;99.90;;;;;;5122852;27;20489;-59
2023/06/28 11:15:14;;;;;;;7.50;3.97;;;19.90;99.90;;;;;;5132726;27;20459;-59
2023/06/28 11:17:42;;;;;;;5.50;4.60;;;20.00;99.90;;;;;;5140166;27;20454;-59
2023/06/28 11:20:12;;;;;;;7.17;4.47;;;19.90;99.90;;;;;;5138657;27;20652;-59
2023/06/28 11:22:50;;;;;;;6.47;4.07;;;19.90;99.90;;;;;;5139109;27;20490;-60
2023/06/28 11:25:17;;;;;;;5.83;4.30;;;20.10;99.90;;;;;;5140140;27;20549;-59
2023/06/28 11:27:47;;;;;;;4.83;4.10;;;20.40;99.90;;;;;;5140208;27;20515;-58
2023/06/28 11:30:17;;;;;;;7.00;4.23;;;20.80;99.90;;;;;;5139122;27;20455;-60
2023/06/28 11:32:47;;;;;;;9.63;4.00;;;21.00;99.90;;;;;;5158178;27;20489;-61
2023/06/28 11:35:14;;;;;;;7.13;5.17;;;21.40;99.90;;;;;;5137432;27;20517;-59
2023/06/28 11:37:43;;;;;;;7.37;4.53;;;21.70;99.90;;;;;;5137778;27;20919;-59
2023/06/28 11:40:11;;;;;;;7.63;5.27;;;21.90;99.90;;;;;;5136682;27;20907;-59
2023/06/28 11:42:45;;;;;;;6.20;4.60;;;22.20;99.90;;;;;;5137591;27;20457;-59
2023/06/28 11:45:19;;;;;;;10.37;4.70;;;22.50;99.90;;;;;;5136883;27;20470;-60
2023/06/28 11:47:48;;;;;;;7.33;4.23;;;22.80;93.00;;;;;;5139068;27;20458;-60
2023/06/28 11:50:16;;;;;;;4.93;4.40;;;23.00;71.90;;;;;;5139775;27;20465;-59
2023/06/28 11:52:47;;;;;;;7.33;4.70;;;23.00;25.80;;;;;;5139901;27;20488;-59
2023/06/28 11:55:16;;;;;;;9.10;4.40;;;23.10;12.60;;;;;;5140247;27;20498;-59
2023/06/28 11:57:44;;;;;;;7.33;4.37;;;23.40;24.20;;;;;;5139525;27;20458;-59
2023/06/28 12:00:13;;;;;;;7.87;5.07;;;23.70;1.00;;;;;;5138199;27;20466;-60
2023/06/28 12:02:49;;;;;;;6.23;4.50;;;23.60;1.00;;;;;;5138908;27;20532;-59
2023/06/28 12:05:18;;;;;;;7.53;4.40;;;23.70;1.00;;;;;;5138694;27;20466;-59
2023/06/28 12:07:46;;;;;;;10.80;5.00;;;23.80;1.00;;;;;;5139890;27;20587;-59
2023/06/28 12:10:13;;;;;;;6.33;4.13;;;23.20;1.00;;;;;;5139079;27;20463;-59
2023/06/28 12:12:41;;;;;;;6.10;4.27;;;23.60;1.00;;;;;;5139400;27;20871;-59
2023/06/28 12:15:13;;;;;;;5.90;3.70;;;23.60;1.00;;;;;;5139327;27;20560;-59
2023/06/28 12:17:41;;;;;;;9.00;5.27;;;23.70;1.00;;;;;;5139897;27;20532;-59
2023/06/28 12:20:12;;;;;;;7.13;4.20;;;23.70;1.00;;;;;;5139856;27;20454;-59
2023/06/28 12:22:41;;;;;;;5.67;4.23;;;23.80;1.00;;;;;;5139265;27;20459;-59
2023/06/28 12:25:09;;;;;;;6.40;4.60;;;24.20;1.00;;;;;;5138759;27;20499;-59
2023/06/28 12:27:38;;;;;;;7.13;5.07;;;24.70;1.00;;;;;;5139417;27;20545;-59
2023/06/28 12:30:09;;;;;;;9.70;4.97;;;24.90;1.00;;;;;;5139419;27;20902;-59
2023/06/28 12:32:42;;;;;;;6.80;5.20;;;24.50;1.00;;;;;;5138916;27;20511;-60
2023/06/28 12:35:23;;;;;;;5.70;4.97;;;24.40;1.00;;;;;;5139225;27;20549;-60
2023/06/28 12:37:54;;;;;;;5.10;4.00;;;23.80;1.00;;;;;;5139075;27;20454;-57
2023/06/28 12:40:24;;;;;;;6.00;4.57;;;23.90;1.00;;;;;;5138809;27;20450;-56
2023/06/28 12:43:09;;;;;;;10.97;5.20;;;23.90;1.00;;;;;;5139099;27;20455;-56
2023/06/28 12:45:45;;;;;;;10.43;5.40;;;23.90;1.00;;;;;;5139071;27;20429;-56
2023/06/28 12:48:13;;;;;;;5.60;4.77;;;23.80;1.00;;;;;;5137376;27;20462;-57
2023/06/28 12:50:41;;;;;;;7.83;4.20;;;24.10;1.00;;;;;;5136546;27;20545;-58
2023/06/28 12:53:09;;;;;;;6.73;5.03;;;24.30;1.00;;;;;;5136606;27;20472;-58
2023/06/28 12:55:36;;;;;;;5.33;4.30;;;23.90;99.90;;;;;;5142369;27;20490;-63
2023/06/28 12:58:03;;;;;;;8.03;5.03;;;23.70;99.90;;;;;;5140007;27;20490;-63